sensor_id;sensor_type;location;lat;lon;timestamp;P1;durP1;ratioP1;P2;durP2;ratioP2
72941;SDS011;69665;55.822;37.330;2023-05-29T00:00:05;5.50;;;2.10;;
72941;SDS011;69665;55.822;37.330;2023-05-29T00:02:52;4.30;;;1.55;;
72941;SDS011;69665;55.822;37.330;2023-05-29T00:05:55;5.60;;;1.95;;
72941;SDS011;69665;55.822;37.330;2023-05-29T00:08:40;5.72;;;1.92;;
72941;SDS011;69665;55.822;37.330;2023-05-29T00:11:24;6.57;;;2.20;;
72941;SDS011;69665;55.822;37.330;2023-05-29T00:14:09;6.50;;;2.05;;
72941;SDS011;69665;55.822;37.330;2023-05-29T00:16:57;4.88;;;1.50;;
72941;SDS011;69665;55.822;37.330;2023-05-29T00:19:42;5.72;;;1.77;;
72941;SDS011;69665;55.822;37.330;2023-05-29T00:22:30;7.00;;;1.92;;
72941;SDS011;69665;55.822;37.330;2023-05-29T00:25:14;6.13;;;2.13;;
72941;SDS011;69665;55.822;37.330;2023-05-29T00:27:58;4.78;;;1.75;;
72941;SDS011;69665;55.822;37.330;2023-05-29T00:30:42;5.38;;;1.90;;
72941;SDS011;69665;55.822;37.330;2023-05-29T00:33:27;5.38;;;1.80;;
72941;SDS011;69665;55.822;37.330;2023-05-29T00:36:11;6.88;;;1.85;;
72941;SDS011;69665;55.822;37.330;2023-05-29T00:38:55;5.45;;;2.10;;
72941;SDS011;69665;55.822;37.330;2023-05-29T00:41:39;6.10;;;2.33;;
72941;SDS011;69665;55.822;37.330;2023-05-29T00:44:24;8.50;;;2.08;;
72941;SDS011;69665;55.822;37.330;2023-05-29T00:47:08;6.68;;;2.53;;
72941;SDS011;69665;55.822;37.330;2023-05-29T00:49:52;6.60;;;2.83;;
72941;SDS011;69665;55.822;37.330;2023-05-29T00:52:58;5.68;;;2.80;;
72941;SDS011;69665;55.822;37.330;2023-05-29T00:55:45;5.85;;;2.70;;
72941;SDS011;69665;55.822;37.330;2023-05-29T00:58:29;7.57;;;2.58;;
72941;SDS011;69665;55.822;37.330;2023-05-29T01:01:14;6.60;;;2.53;;
72941;SDS011;69665;55.822;37.330;2023-05-29T01:03:59;6.80;;;2.60;;
72941;SDS011;69665;55.822;37.330;2023-05-29T01:06:45;7.82;;;2.42;;
72941;SDS011;69665;55.822;37.330;2023-05-29T01:09:30;9.05;;;3.00;;
72941;SDS011;69665;55.822;37.330;2023-05-29T01:12:27;8.43;;;2.92;;
72941;SDS011;69665;55.822;37.330;2023-05-29T01:15:21;9.00;;;2.90;;
72941;SDS011;69665;55.822;37.330;2023-05-29T01:18:19;7.60;;;2.97;;
72941;SDS011;69665;55.822;37.330;2023-05-29T01:27:15;6.05;;;2.38;;
72941;SDS011;69665;55.822;37.330;2023-05-29T01:30:02;8.55;;;2.38;;
72941;SDS011;69665;55.822;37.330;2023-05-29T01:32:47;6.60;;;2.38;;
72941;SDS011;69665;55.822;37.330;2023-05-29T01:35:32;6.55;;;2.30;;
72941;SDS011;69665;55.822;37.330;2023-05-29T01:38:16;6.05;;;2.63;;
72941;SDS011;69665;55.822;37.330;2023-05-29T01:41:00;7.22;;;2.30;;
72941;SDS011;69665;55.822;37.330;2023-05-29T01:44:06;5.97;;;2.40;;
72941;SDS011;69665;55.822;37.330;2023-05-29T01:46:55;7.00;;;3.42;;
72941;SDS011;69665;55.822;37.330;2023-05-29T01:49:40;6.63;;;2.42;;
72941;SDS011;69665;55.822;37.330;2023-05-29T01:52:25;6.47;;;2.35;;
72941;SDS011;69665;55.822;37.330;2023-05-29T01:55:31;8.07;;;2.42;;
72941;SDS011;69665;55.822;37.330;2023-05-29T01:58:34;5.60;;;2.20;;
72941;SDS011;69665;55.822;37.330;2023-05-29T02:01:20;7.78;;;2.42;;
72941;SDS011;69665;55.822;37.330;2023-05-29T02:04:05;9.52;;;3.00;;
72941;SDS011;69665;55.822;37.330;2023-05-29T02:06:49;6.00;;;2.83;;
72941;SDS011;69665;55.822;37.330;2023-05-29T02:09:34;7.25;;;2.30;;
72941;SDS011;69665;55.822;37.330;2023-05-29T02:12:19;7.22;;;2.55;;
72941;SDS011;69665;55.822;37.330;2023-05-29T02:15:03;6.55;;;2.35;;
72941;SDS011;69665;55.822;37.330;2023-05-29T02:17:47;8.05;;;2.67;;
72941;SDS011;69665;55.822;37.330;2023-05-29T02:20:33;7.82;;;2.55;;
72941;SDS011;69665;55.822;37.330;2023-05-29T02:23:17;7.28;;;2.60;;
72941;SDS011;69665;55.822;37.330;2023-05-29T02:26:03;7.55;;;2.58;;
72941;SDS011;69665;55.822;37.330;2023-05-29T02:28:47;8.27;;;2.38;;
72941;SDS011;69665;55.822;37.330;2023-05-29T02:31:31;7.05;;;2.58;;
72941;SDS011;69665;55.822;37.330;2023-05-29T02:34:15;8.05;;;2.70;;
72941;SDS011;69665;55.822;37.330;2023-05-29T02:37:00;8.25;;;2.85;;
72941;SDS011;69665;55.822;37.330;2023-05-29T02:39:44;6.20;;;3.03;;
72941;SDS011;69665;55.822;37.330;2023-05-29T02:42:30;6.05;;;2.08;;
72941;SDS011;69665;55.822;37.330;2023-05-29T02:45:14;6.32;;;2.67;;
72941;SDS011;69665;55.822;37.330;2023-05-29T02:47:58;8.10;;;2.38;;
72941;SDS011;69665;55.822;37.330;2023-05-29T02:51:01;4.05;;;2.00;;
72941;SDS011;69665;55.822;37.330;2023-05-29T02:53:46;5.30;;;2.22;;
72941;SDS011;69665;55.822;37.330;2023-05-29T02:56:30;7.90;;;2.45;;
72941;SDS011;69665;55.822;37.330;2023-05-29T02:59:14;5.50;;;1.80;;
72941;SDS011;69665;55.822;37.330;2023-05-29T03:01:59;4.43;;;1.83;;
72941;SDS011;69665;55.822;37.330;2023-05-29T03:04:44;5.80;;;2.20;;
72941;SDS011;69665;55.822;37.330;2023-05-29T03:07:30;5.07;;;2.20;;
72941;SDS011;69665;55.822;37.330;2023-05-29T03:10:14;7.03;;;3.40;;
72941;SDS011;69665;55.822;37.330;2023-05-29T03:13:00;6.68;;;2.30;;
72941;SDS011;69665;55.822;37.330;2023-05-29T03:15:44;7.97;;;2.53;;
72941;SDS011;69665;55.822;37.330;2023-05-29T03:18:29;6.32;;;2.42;;
72941;SDS011;69665;55.822;37.330;2023-05-29T03:21:13;6.70;;;2.08;;
72941;SDS011;69665;55.822;37.330;2023-05-29T03:24:16;7.63;;;2.40;;
72941;SDS011;69665;55.822;37.330;2023-05-29T03:27:01;7.22;;;2.10;;
72941;SDS011;69665;55.822;37.330;2023-05-29T03:29:46;7.10;;;2.38;;
72941;SDS011;69665;55.822;37.330;2023-05-29T03:32:31;5.97;;;2.45;;
72941;SDS011;69665;55.822;37.330;2023-05-29T03:35:15;7.32;;;2.50;;
72941;SDS011;69665;55.822;37.330;2023-05-29T03:37:59;6.80;;;2.50;;
72941;SDS011;69665;55.822;37.330;2023-05-29T03:40:44;6.43;;;2.22;;
72941;SDS011;69665;55.822;37.330;2023-05-29T03:43:28;4.70;;;2.00;;
72941;SDS011;69665;55.822;37.330;2023-05-29T03:46:12;6.72;;;2.28;;
72941;SDS011;69665;55.822;37.330;2023-05-29T03:48:57;5.53;;;2.15;;
72941;SDS011;69665;55.822;37.330;2023-05-29T03:51:59;9.48;;;2.25;;
72941;SDS011;69665;55.822;37.330;2023-05-29T03:54:44;11.70;;;2.35;;
72941;SDS011;69665;55.822;37.330;2023-05-29T03:57:29;6.32;;;2.05;;
72941;SDS011;69665;55.822;37.330;2023-05-29T04:00:14;4.88;;;1.73;;
72941;SDS011;69665;55.822;37.330;2023-05-29T04:02:58;5.43;;;1.90;;
72941;SDS011;69665;55.822;37.330;2023-05-29T04:05:43;8.32;;;2.10;;
72941;SDS011;69665;55.822;37.330;2023-05-29T04:08:27;4.20;;;1.58;;
72941;SDS011;69665;55.822;37.330;2023-05-29T04:11:11;4.45;;;1.58;;
72941;SDS011;69665;55.822;37.330;2023-05-29T04:13:55;4.60;;;1.23;;
72941;SDS011;69665;55.822;37.330;2023-05-29T04:16:39;3.72;;;1.50;;
72941;SDS011;69665;55.822;37.330;2023-05-29T04:19:24;4.00;;;1.40;;
72941;SDS011;69665;55.822;37.330;2023-05-29T04:22:08;3.58;;;1.45;;
72941;SDS011;69665;55.822;37.330;2023-05-29T04:24:52;4.47;;;1.38;;
72941;SDS011;69665;55.822;37.330;2023-05-29T04:27:36;3.70;;;1.50;;
72941;SDS011;69665;55.822;37.330;2023-05-29T04:30:21;3.50;;;1.48;;
72941;SDS011;69665;55.822;37.330;2023-05-29T04:33:05;3.53;;;1.30;;
72941;SDS011;69665;55.822;37.330;2023-05-29T04:35:50;4.72;;;1.50;;
72941;SDS011;69665;55.822;37.330;2023-05-29T04:38:34;5.32;;;1.50;;
72941;SDS011;69665;55.822;37.330;2023-05-29T04:41:20;5.65;;;1.60;;
72941;SDS011;69665;55.822;37.330;2023-05-29T04:44:12;4.60;;;1.80;;
72941;SDS011;69665;55.822;37.330;2023-05-29T04:46:57;3.08;;;1.33;;
72941;SDS011;69665;55.822;37.330;2023-05-29T04:49:41;3.72;;;1.73;;
72941;SDS011;69665;55.822;37.330;2023-05-29T04:52:44;2.97;;;1.27;;
72941;SDS011;69665;55.822;37.330;2023-05-29T04:55:28;4.13;;;1.50;;
72941;SDS011;69665;55.822;37.330;2023-05-29T04:58:13;4.97;;;1.60;;
72941;SDS011;69665;55.822;37.330;2023-05-29T05:00:57;3.80;;;1.60;;
72941;SDS011;69665;55.822;37.330;2023-05-29T05:03:41;5.63;;;1.60;;
72941;SDS011;69665;55.822;37.330;2023-05-29T05:06:26;5.00;;;1.60;;
72941;SDS011;69665;55.822;37.330;2023-05-29T05:09:11;5.88;;;1.75;;
72941;SDS011;69665;55.822;37.330;2023-05-29T05:11:55;3.42;;;1.90;;
72941;SDS011;69665;55.822;37.330;2023-05-29T05:14:40;4.03;;;1.63;;
72941;SDS011;69665;55.822;37.330;2023-05-29T05:17:24;6.50;;;1.63;;
72941;SDS011;69665;55.822;37.330;2023-05-29T05:20:09;3.72;;;1.45;;
72941;SDS011;69665;55.822;37.330;2023-05-29T05:22:55;4.47;;;1.33;;
72941;SDS011;69665;55.822;37.330;2023-05-29T05:28:42;3.30;;;1.38;;
72941;SDS011;69665;55.822;37.330;2023-05-29T05:31:29;2.92;;;1.40;;
72941;SDS011;69665;55.822;37.330;2023-05-29T05:34:13;3.75;;;1.42;;
72941;SDS011;69665;55.822;37.330;2023-05-29T05:36:58;4.82;;;1.42;;
72941;SDS011;69665;55.822;37.330;2023-05-29T05:39:42;3.90;;;1.30;;
72941;SDS011;69665;55.822;37.330;2023-05-29T05:42:32;4.13;;;1.40;;
72941;SDS011;69665;55.822;37.330;2023-05-29T05:45:16;4.03;;;1.20;;
72941;SDS011;69665;55.822;37.330;2023-05-29T05:48:00;4.22;;;1.27;;
72941;SDS011;69665;55.822;37.330;2023-05-29T05:50:45;4.07;;;1.58;;
72941;SDS011;69665;55.822;37.330;2023-05-29T05:53:48;2.45;;;1.25;;
72941;SDS011;69665;55.822;37.330;2023-05-29T05:56:32;3.20;;;1.25;;
72941;SDS011;69665;55.822;37.330;2023-05-29T05:59:16;4.15;;;1.13;;
72941;SDS011;69665;55.822;37.330;2023-05-29T06:02:00;2.45;;;1.20;;
72941;SDS011;69665;55.822;37.330;2023-05-29T06:04:45;2.67;;;1.58;;
72941;SDS011;69665;55.822;37.330;2023-05-29T06:07:29;3.53;;;1.17;;
72941;SDS011;69665;55.822;37.330;2023-05-29T06:10:17;2.50;;;1.10;;
72941;SDS011;69665;55.822;37.330;2023-05-29T06:13:01;3.13;;;1.10;;
72941;SDS011;69665;55.822;37.330;2023-05-29T06:15:45;2.97;;;1.05;;
72941;SDS011;69665;55.822;37.330;2023-05-29T06:18:29;1.52;;;0.93;;
72941;SDS011;69665;55.822;37.330;2023-05-29T06:21:14;2.25;;;0.85;;
72941;SDS011;69665;55.822;37.330;2023-05-29T06:23:58;2.33;;;0.90;;
72941;SDS011;69665;55.822;37.330;2023-05-29T06:26:42;1.45;;;0.93;;
72941;SDS011;69665;55.822;37.330;2023-05-29T06:29:27;2.60;;;1.08;;
72941;SDS011;69665;55.822;37.330;2023-05-29T06:32:11;1.85;;;0.90;;
72941;SDS011;69665;55.822;37.330;2023-05-29T06:34:55;1.50;;;0.85;;
72941;SDS011;69665;55.822;37.330;2023-05-29T06:37:39;1.42;;;0.88;;
72941;SDS011;69665;55.822;37.330;2023-05-29T06:40:23;2.78;;;0.77;;
72941;SDS011;69665;55.822;37.330;2023-05-29T06:43:08;2.05;;;1.05;;
72941;SDS011;69665;55.822;37.330;2023-05-29T06:45:52;2.80;;;0.95;;
72941;SDS011;69665;55.822;37.330;2023-05-29T06:48:37;3.30;;;0.95;;
72941;SDS011;69665;55.822;37.330;2023-05-29T06:51:59;2.70;;;0.90;;
72941;SDS011;69665;55.822;37.330;2023-05-29T06:54:43;2.20;;;1.00;;
72941;SDS011;69665;55.822;37.330;2023-05-29T06:57:47;3.55;;;1.10;;
72941;SDS011;69665;55.822;37.330;2023-05-29T07:00:31;1.90;;;0.82;;
72941;SDS011;69665;55.822;37.330;2023-05-29T07:03:15;2.08;;;0.95;;
72941;SDS011;69665;55.822;37.330;2023-05-29T07:05:59;2.80;;;1.30;;
72941;SDS011;69665;55.822;37.330;2023-05-29T07:08:44;4.63;;;1.30;;
72941;SDS011;69665;55.822;37.330;2023-05-29T07:11:28;3.72;;;1.13;;
72941;SDS011;69665;55.822;37.330;2023-05-29T07:14:12;3.55;;;1.00;;
72941;SDS011;69665;55.822;37.330;2023-05-29T07:16:58;3.42;;;1.15;;
72941;SDS011;69665;55.822;37.330;2023-05-29T07:19:42;3.65;;;1.20;;
72941;SDS011;69665;55.822;37.330;2023-05-29T07:22:29;3.85;;;1.42;;
72941;SDS011;69665;55.822;37.330;2023-05-29T07:25:13;4.45;;;1.27;;
72941;SDS011;69665;55.822;37.330;2023-05-29T07:31:01;2.25;;;1.00;;
72941;SDS011;69665;55.822;37.330;2023-05-29T07:33:45;3.20;;;1.63;;
72941;SDS011;69665;55.822;37.330;2023-05-29T07:36:30;3.47;;;1.23;;
72941;SDS011;69665;55.822;37.330;2023-05-29T07:39:17;3.53;;;1.10;;
72941;SDS011;69665;55.822;37.330;2023-05-29T07:42:02;3.13;;;1.20;;
72941;SDS011;69665;55.822;37.330;2023-05-29T07:44:46;2.42;;;1.13;;
72941;SDS011;69665;55.822;37.330;2023-05-29T07:47:31;3.83;;;1.13;;
72941;SDS011;69665;55.822;37.330;2023-05-29T07:50:15;2.35;;;1.05;;
72941;SDS011;69665;55.822;37.330;2023-05-29T07:53:18;3.88;;;1.13;;
72941;SDS011;69665;55.822;37.330;2023-05-29T07:56:03;2.22;;;0.85;;
72941;SDS011;69665;55.822;37.330;2023-05-29T07:58:47;2.17;;;0.95;;
72941;SDS011;69665;55.822;37.330;2023-05-29T08:01:31;3.90;;;0.98;;
72941;SDS011;69665;55.822;37.330;2023-05-29T08:04:15;1.60;;;0.80;;
72941;SDS011;69665;55.822;37.330;2023-05-29T08:07:00;2.45;;;0.95;;
72941;SDS011;69665;55.822;37.330;2023-05-29T08:09:47;3.33;;;0.93;;
72941;SDS011;69665;55.822;37.330;2023-05-29T08:15:35;4.93;;;0.98;;
72941;SDS011;69665;55.822;37.330;2023-05-29T08:18:20;2.47;;;0.88;;
72941;SDS011;69665;55.822;37.330;2023-05-29T08:21:04;1.95;;;0.90;;
72941;SDS011;69665;55.822;37.330;2023-05-29T08:23:49;2.65;;;0.90;;
72941;SDS011;69665;55.822;37.330;2023-05-29T08:26:33;3.38;;;1.10;;
72941;SDS011;69665;55.822;37.330;2023-05-29T08:29:17;3.63;;;0.90;;
72941;SDS011;69665;55.822;37.330;2023-05-29T08:32:02;2.53;;;0.85;;
72941;SDS011;69665;55.822;37.330;2023-05-29T08:34:46;3.47;;;0.98;;
72941;SDS011;69665;55.822;37.330;2023-05-29T08:37:32;2.72;;;0.90;;
72941;SDS011;69665;55.822;37.330;2023-05-29T08:40:35;2.78;;;0.90;;
72941;SDS011;69665;55.822;37.330;2023-05-29T08:43:22;2.88;;;1.20;;
72941;SDS011;69665;55.822;37.330;2023-05-29T08:46:06;1.42;;;0.70;;
72941;SDS011;69665;55.822;37.330;2023-05-29T08:48:52;2.25;;;0.80;;
72941;SDS011;69665;55.822;37.330;2023-05-29T08:51:40;2.70;;;1.00;;
72941;SDS011;69665;55.822;37.330;2023-05-29T08:54:31;2.50;;;0.90;;
72941;SDS011;69665;55.822;37.330;2023-05-29T08:57:17;2.25;;;0.77;;
72941;SDS011;69665;55.822;37.330;2023-05-29T09:00:01;2.60;;;1.10;;
72941;SDS011;69665;55.822;37.330;2023-05-29T09:02:51;3.70;;;0.93;;
72941;SDS011;69665;55.822;37.330;2023-05-29T09:05:38;1.60;;;0.75;;
72941;SDS011;69665;55.822;37.330;2023-05-29T09:08:24;2.50;;;0.95;;
72941;SDS011;69665;55.822;37.330;2023-05-29T09:11:08;3.00;;;0.93;;
72941;SDS011;69665;55.822;37.330;2023-05-29T09:13:53;3.40;;;0.90;;
72941;SDS011;69665;55.822;37.330;2023-05-29T09:16:43;1.45;;;0.80;;
72941;SDS011;69665;55.822;37.330;2023-05-29T09:19:31;2.53;;;1.02;;
72941;SDS011;69665;55.822;37.330;2023-05-29T09:22:15;2.67;;;1.00;;
72941;SDS011;69665;55.822;37.330;2023-05-29T09:24:59;3.47;;;1.13;;
72941;SDS011;69665;55.822;37.330;2023-05-29T09:27:45;2.75;;;0.88;;
72941;SDS011;69665;55.822;37.330;2023-05-29T09:36:22;3.28;;;1.00;;
72941;SDS011;69665;55.822;37.330;2023-05-29T09:39:06;3.00;;;1.00;;
72941;SDS011;69665;55.822;37.330;2023-05-29T09:41:56;2.13;;;0.80;;
72941;SDS011;69665;55.822;37.330;2023-05-29T09:44:40;4.22;;;1.00;;
72941;SDS011;69665;55.822;37.330;2023-05-29T09:47:25;1.85;;;0.80;;
72941;SDS011;69665;55.822;37.330;2023-05-29T09:50:20;1.95;;;0.95;;
72941;SDS011;69665;55.822;37.330;2023-05-29T09:53:18;3.85;;;1.20;;
72941;SDS011;69665;55.822;37.330;2023-05-29T09:56:04;2.85;;;1.10;;
72941;SDS011;69665;55.822;37.330;2023-05-29T09:58:49;3.03;;;1.00;;
72941;SDS011;69665;55.822;37.330;2023-05-29T10:01:35;4.65;;;1.13;;
72941;SDS011;69665;55.822;37.330;2023-05-29T10:04:19;1.45;;;0.60;;
72941;SDS011;69665;55.822;37.330;2023-05-29T10:07:05;2.55;;;0.90;;
72941;SDS011;69665;55.822;37.330;2023-05-29T10:10:00;2.42;;;0.80;;
72941;SDS011;69665;55.822;37.330;2023-05-29T10:12:51;2.35;;;0.88;;
72941;SDS011;69665;55.822;37.330;2023-05-29T10:15:56;4.13;;;1.00;;
72941;SDS011;69665;55.822;37.330;2023-05-29T10:18:47;2.95;;;1.05;;
72941;SDS011;69665;55.822;37.330;2023-05-29T10:21:38;3.20;;;0.98;;
72941;SDS011;69665;55.822;37.330;2023-05-29T10:24:25;2.15;;;0.90;;
72941;SDS011;69665;55.822;37.330;2023-05-29T10:27:10;4.32;;;0.90;;
72941;SDS011;69665;55.822;37.330;2023-05-29T10:30:29;3.85;;;1.00;;
72941;SDS011;69665;55.822;37.330;2023-05-29T10:33:11;2.67;;;0.98;;
72941;SDS011;69665;55.822;37.330;2023-05-29T10:38:48;2.40;;;0.98;;
72941;SDS011;69665;55.822;37.330;2023-05-29T10:41:33;2.10;;;0.70;;
72941;SDS011;69665;55.822;37.330;2023-05-29T10:47:25;3.60;;;1.20;;
72941;SDS011;69665;55.822;37.330;2023-05-29T10:50:09;2.03;;;0.60;;
72941;SDS011;69665;55.822;37.330;2023-05-29T10:52:56;2.75;;;0.90;;
72941;SDS011;69665;55.822;37.330;2023-05-29T10:55:41;2.10;;;0.82;;
72941;SDS011;69665;55.822;37.330;2023-05-29T10:58:25;4.70;;;0.80;;
72941;SDS011;69665;55.822;37.330;2023-05-29T11:01:10;2.45;;;0.88;;
72941;SDS011;69665;55.822;37.330;2023-05-29T11:04:41;2.92;;;1.02;;
72941;SDS011;69665;55.822;37.330;2023-05-29T11:07:25;3.40;;;1.00;;
72941;SDS011;69665;55.822;37.330;2023-05-29T11:10:15;3.35;;;0.95;;
72941;SDS011;69665;55.822;37.330;2023-05-29T11:13:00;2.15;;;0.80;;
72941;SDS011;69665;55.822;37.330;2023-05-29T11:19:06;3.00;;;0.80;;
72941;SDS011;69665;55.822;37.330;2023-05-29T11:21:58;3.22;;;1.10;;
72941;SDS011;69665;55.822;37.330;2023-05-29T11:24:53;3.42;;;0.77;;
72941;SDS011;69665;55.822;37.330;2023-05-29T11:27:40;4.60;;;1.00;;
72941;SDS011;69665;55.822;37.330;2023-05-29T11:30:25;4.40;;;0.82;;
72941;SDS011;69665;55.822;37.330;2023-05-29T11:33:11;3.80;;;0.93;;
72941;SDS011;69665;55.822;37.330;2023-05-29T11:36:08;3.90;;;1.00;;
72941;SDS011;69665;55.822;37.330;2023-05-29T11:38:56;3.92;;;1.00;;
72941;SDS011;69665;55.822;37.330;2023-05-29T11:41:59;2.80;;;0.80;;
72941;SDS011;69665;55.822;37.330;2023-05-29T11:44:44;2.47;;;0.80;;
72941;SDS011;69665;55.822;37.330;2023-05-29T11:47:29;2.38;;;0.88;;
72941;SDS011;69665;55.822;37.330;2023-05-29T11:50:18;2.88;;;0.85;;
72941;SDS011;69665;55.822;37.330;2023-05-29T11:53:05;2.42;;;0.70;;
72941;SDS011;69665;55.822;37.330;2023-05-29T11:55:50;3.67;;;0.82;;
72941;SDS011;69665;55.822;37.330;2023-05-29T11:58:35;3.65;;;1.02;;
72941;SDS011;69665;55.822;37.330;2023-05-29T12:04:23;4.43;;;1.10;;
72941;SDS011;69665;55.822;37.330;2023-05-29T12:07:19;4.88;;;1.00;;
72941;SDS011;69665;55.822;37.330;2023-05-29T12:10:10;2.00;;;0.68;;
72941;SDS011;69665;55.822;37.330;2023-05-29T12:12:56;4.10;;;1.05;;
72941;SDS011;69665;55.822;37.330;2023-05-29T12:16:01;2.60;;;0.82;;
72941;SDS011;69665;55.822;37.330;2023-05-29T12:18:49;4.45;;;1.10;;
72941;SDS011;69665;55.822;37.330;2023-05-29T12:21:33;2.92;;;0.90;;
72941;SDS011;69665;55.822;37.330;2023-05-29T12:24:18;2.90;;;1.02;;
72941;SDS011;69665;55.822;37.330;2023-05-29T12:27:03;3.83;;;1.00;;
72941;SDS011;69665;55.822;37.330;2023-05-29T12:29:59;2.83;;;0.95;;
72941;SDS011;69665;55.822;37.330;2023-05-29T12:32:44;3.88;;;0.70;;
72941;SDS011;69665;55.822;37.330;2023-05-29T12:35:30;3.50;;;1.00;;
72941;SDS011;69665;55.822;37.330;2023-05-29T12:38:14;2.85;;;0.75;;
72941;SDS011;69665;55.822;37.330;2023-05-29T12:41:26;4.00;;;1.10;;
72941;SDS011;69665;55.822;37.330;2023-05-29T12:44:18;5.57;;;1.10;;
72941;SDS011;69665;55.822;37.330;2023-05-29T12:47:02;3.38;;;0.93;;
72941;SDS011;69665;55.822;37.330;2023-05-29T12:49:46;4.97;;;1.23;;
72941;SDS011;69665;55.822;37.330;2023-05-29T12:52:31;4.75;;;0.95;;
72941;SDS011;69665;55.822;37.330;2023-05-29T12:55:15;3.28;;;0.95;;
72941;SDS011;69665;55.822;37.330;2023-05-29T12:57:59;3.40;;;0.82;;
72941;SDS011;69665;55.822;37.330;2023-05-29T13:00:43;1.92;;;0.70;;
72941;SDS011;69665;55.822;37.330;2023-05-29T13:03:29;3.55;;;0.70;;
72941;SDS011;69665;55.822;37.330;2023-05-29T13:06:14;3.10;;;1.10;;
72941;SDS011;69665;55.822;37.330;2023-05-29T13:09:01;4.22;;;1.00;;
72941;SDS011;69665;55.822;37.330;2023-05-29T13:11:45;2.45;;;0.60;;
72941;SDS011;69665;55.822;37.330;2023-05-29T13:14:29;4.43;;;1.02;;
72941;SDS011;69665;55.822;37.330;2023-05-29T13:17:13;2.25;;;0.85;;
72941;SDS011;69665;55.822;37.330;2023-05-29T13:19:58;3.88;;;1.00;;
72941;SDS011;69665;55.822;37.330;2023-05-29T13:22:43;2.47;;;0.75;;
72941;SDS011;69665;55.822;37.330;2023-05-29T13:25:28;4.47;;;1.65;;
72941;SDS011;69665;55.822;37.330;2023-05-29T13:28:13;5.43;;;0.90;;
72941;SDS011;69665;55.822;37.330;2023-05-29T13:30:57;3.88;;;0.98;;
72941;SDS011;69665;55.822;37.330;2023-05-29T13:33:41;2.53;;;0.90;;
72941;SDS011;69665;55.822;37.330;2023-05-29T13:36:25;3.72;;;0.90;;
72941;SDS011;69665;55.822;37.330;2023-05-29T13:39:10;2.25;;;0.70;;
72941;SDS011;69665;55.822;37.330;2023-05-29T13:42:13;3.63;;;0.88;;
72941;SDS011;69665;55.822;37.330;2023-05-29T13:44:58;3.60;;;0.93;;
72941;SDS011;69665;55.822;37.330;2023-05-29T13:47:42;2.88;;;0.82;;
72941;SDS011;69665;55.822;37.330;2023-05-29T13:50:27;2.50;;;1.00;;
72941;SDS011;69665;55.822;37.330;2023-05-29T13:53:11;3.35;;;0.90;;
72941;SDS011;69665;55.822;37.330;2023-05-29T13:55:55;3.22;;;1.00;;
72941;SDS011;69665;55.822;37.330;2023-05-29T13:58:39;7.55;;;1.08;;
72941;SDS011;69665;55.822;37.330;2023-05-29T14:01:27;3.17;;;1.08;;
72941;SDS011;69665;55.822;37.330;2023-05-29T14:04:11;3.13;;;0.90;;
72941;SDS011;69665;55.822;37.330;2023-05-29T14:06:55;5.93;;;1.13;;
72941;SDS011;69665;55.822;37.330;2023-05-29T14:09:40;3.72;;;1.00;;
72941;SDS011;69665;55.822;37.330;2023-05-29T14:12:24;3.83;;;1.13;;
72941;SDS011;69665;55.822;37.330;2023-05-29T14:15:09;3.17;;;1.17;;
72941;SDS011;69665;55.822;37.330;2023-05-29T14:17:57;3.88;;;1.10;;
72941;SDS011;69665;55.822;37.330;2023-05-29T14:21:00;4.45;;;1.38;;
72941;SDS011;69665;55.822;37.330;2023-05-29T14:23:44;2.88;;;0.98;;
72941;SDS011;69665;55.822;37.330;2023-05-29T14:26:28;2.80;;;1.13;;
72941;SDS011;69665;55.822;37.330;2023-05-29T14:29:13;4.22;;;1.10;;
72941;SDS011;69665;55.822;37.330;2023-05-29T14:31:58;3.63;;;1.30;;
72941;SDS011;69665;55.822;37.330;2023-05-29T14:34:42;4.30;;;1.15;;
72941;SDS011;69665;55.822;37.330;2023-05-29T14:37:31;3.25;;;0.98;;
72941;SDS011;69665;55.822;37.330;2023-05-29T14:40:15;2.53;;;0.65;;
72941;SDS011;69665;55.822;37.330;2023-05-29T14:42:59;3.95;;;1.00;;
72941;SDS011;69665;55.822;37.330;2023-05-29T14:45:43;3.65;;;0.88;;
72941;SDS011;69665;55.822;37.330;2023-05-29T14:48:30;3.58;;;1.08;;
72941;SDS011;69665;55.822;37.330;2023-05-29T14:51:14;3.28;;;1.08;;
72941;SDS011;69665;55.822;37.330;2023-05-29T14:53:59;3.92;;;0.80;;
72941;SDS011;69665;55.822;37.330;2023-05-29T14:56:44;6.07;;;1.15;;
72941;SDS011;69665;55.822;37.330;2023-05-29T14:59:28;2.55;;;0.90;;
72941;SDS011;69665;55.822;37.330;2023-05-29T15:02:13;3.25;;;1.02;;
72941;SDS011;69665;55.822;37.330;2023-05-29T15:08:00;10.45;;;2.10;;
72941;SDS011;69665;55.822;37.330;2023-05-29T15:10:44;4.20;;;1.17;;
72941;SDS011;69665;55.822;37.330;2023-05-29T15:13:28;4.68;;;1.40;;
72941;SDS011;69665;55.822;37.330;2023-05-29T15:16:13;4.10;;;1.30;;
72941;SDS011;69665;55.822;37.330;2023-05-29T15:18:58;4.78;;;1.23;;
72941;SDS011;69665;55.822;37.330;2023-05-29T15:22:01;3.95;;;1.15;;
72941;SDS011;69665;55.822;37.330;2023-05-29T15:24:45;3.72;;;1.25;;
72941;SDS011;69665;55.822;37.330;2023-05-29T15:27:29;3.72;;;1.58;;
72941;SDS011;69665;55.822;37.330;2023-05-29T15:30:15;8.50;;;3.33;;
72941;SDS011;69665;55.822;37.330;2023-05-29T15:35:51;4.53;;;1.30;;
72941;SDS011;69665;55.822;37.330;2023-05-29T15:38:35;4.72;;;1.67;;
72941;SDS011;69665;55.822;37.330;2023-05-29T15:41:19;4.80;;;1.58;;
72941;SDS011;69665;55.822;37.330;2023-05-29T15:44:03;3.25;;;1.20;;
72941;SDS011;69665;55.822;37.330;2023-05-29T15:46:48;4.53;;;1.20;;
72941;SDS011;69665;55.822;37.330;2023-05-29T15:49:32;4.55;;;1.33;;
72941;SDS011;69665;55.822;37.330;2023-05-29T15:52:17;3.85;;;1.27;;
72941;SDS011;69665;55.822;37.330;2023-05-29T15:55:01;5.15;;;1.27;;
72941;SDS011;69665;55.822;37.330;2023-05-29T15:57:46;2.72;;;1.05;;
72941;SDS011;69665;55.822;37.330;2023-05-29T16:00:31;3.22;;;0.90;;
72941;SDS011;69665;55.822;37.330;2023-05-29T16:03:34;4.68;;;1.40;;
72941;SDS011;69665;55.822;37.330;2023-05-29T16:06:18;5.32;;;1.45;;
72941;SDS011;69665;55.822;37.330;2023-05-29T16:09:02;6.65;;;1.52;;
72941;SDS011;69665;55.822;37.330;2023-05-29T16:11:46;3.97;;;1.25;;
72941;SDS011;69665;55.822;37.330;2023-05-29T16:14:31;2.92;;;1.10;;
72941;SDS011;69665;55.822;37.330;2023-05-29T16:17:15;3.67;;;1.20;;
72941;SDS011;69665;55.822;37.330;2023-05-29T16:19:59;3.95;;;1.45;;
72941;SDS011;69665;55.822;37.330;2023-05-29T16:23:02;4.60;;;1.50;;
72941;SDS011;69665;55.822;37.330;2023-05-29T16:25:46;6.38;;;1.73;;
72941;SDS011;69665;55.822;37.330;2023-05-29T16:28:31;4.18;;;1.50;;
72941;SDS011;69665;55.822;37.330;2023-05-29T16:31:15;4.55;;;1.60;;
72941;SDS011;69665;55.822;37.330;2023-05-29T16:34:18;4.00;;;1.80;;
72941;SDS011;69665;55.822;37.330;2023-05-29T16:37:02;7.40;;;2.53;;
72941;SDS011;69665;55.822;37.330;2023-05-29T16:39:46;4.95;;;1.45;;
72941;SDS011;69665;55.822;37.330;2023-05-29T16:42:32;6.63;;;1.60;;
72941;SDS011;69665;55.822;37.330;2023-05-29T16:45:17;7.28;;;1.58;;
72941;SDS011;69665;55.822;37.330;2023-05-29T16:48:01;5.38;;;1.40;;
72941;SDS011;69665;55.822;37.330;2023-05-29T16:50:45;5.45;;;1.38;;
72941;SDS011;69665;55.822;37.330;2023-05-29T16:53:30;4.72;;;1.60;;
72941;SDS011;69665;55.822;37.330;2023-05-29T16:56:14;5.85;;;1.55;;
72941;SDS011;69665;55.822;37.330;2023-05-29T16:58:58;8.95;;;1.98;;
72941;SDS011;69665;55.822;37.330;2023-05-29T17:01:42;6.13;;;1.63;;
72941;SDS011;69665;55.822;37.330;2023-05-29T17:04:27;4.85;;;1.50;;
72941;SDS011;69665;55.822;37.330;2023-05-29T17:07:11;7.88;;;1.73;;